createdAt,value
2017-08-31T17:06:05.912Z,94568.88
2017-08-31T17:08:33.529Z,94570.09
2017-08-31T17:11:01.160Z,94575.57
2017-08-31T17:13:28.789Z,94577.16
2017-08-31T17:15:56.402Z,94579.68
2017-08-31T17:18:23.935Z,94570.69
2017-08-31T17:20:51.584Z,94576.48
2017-08-31T17:23:19.181Z,94579.61
2017-08-31T17:25:46.756Z,94577.92
2017-08-31T17:28:14.394Z,94571.59
2017-08-31T17:30:41.972Z,94572.22
2017-08-31T17:33:09.563Z,94567.98
2017-08-31T17:35:37.161Z,94570.30
2017-08-31T17:38:04.756Z,94572.02
2017-08-31T17:40:32.334Z,94572.43
2017-08-31T17:42:59.951Z,94574.73
2017-08-31T17:45:27.489Z,94576.88
2017-08-31T17:47:55.067Z,94577.25
2017-08-31T17:50:22.657Z,94576.10
2017-08-31T17:52:50.232Z,94582.84
2017-08-31T17:55:17.784Z,94581.67
2017-08-31T17:57:45.412Z,94579.59
2017-08-31T18:00:13.011Z,94587.64
2017-08-31T18:02:40.545Z,94583.39
2017-08-31T18:05:08.213Z,94585.48
2017-08-31T18:07:35.831Z,94586.45
2017-08-31T18:10:03.401Z,94586.24
2017-08-31T18:12:31.004Z,94587.22
2017-08-31T18:14:58.607Z,94604.28
2017-08-31T18:17:26.240Z,94609.84
2017-08-31T18:19:53.881Z,94610.39
2017-08-31T18:22:21.441Z,94615.58
2017-08-31T18:24:49.018Z,94624.20
2017-08-31T18:27:16.591Z,94632.05
2017-08-31T18:29:44.190Z,94629.73
2017-08-31T18:32:11.773Z,94633.77
2017-08-31T18:34:39.341Z,94633.16
2017-08-31T18:37:06.956Z,94631.78
2017-08-31T18:39:34.525Z,94630.03
2017-08-31T18:42:02.147Z,94635.58
2017-08-31T18:44:29.783Z,94635.55
